Latest Weather Observations for The Monument

IDQ60801

Issued at 9:33 pm EST Monday 25 July 2016 (issued every 30 minutes, with the page automatically refreshed every 10 minutes)

About weather observations | Map of weather stations | Latest weather observations for QLD | Other Formats
Station Details ID: 037034 Name: THE MONUMENT AIRPORT Lat: -21.81 Lon: 139.93 Height: 288.4 m
Data from the previous 72 hours. | See also: Recent months at The Monument
Date/Time
EST
Temp
°C
App
Temp
°C
Dew
Point
°C
Rel
Hum
%
Delta-T
°C
Wind Press
QNH
hPa
Press
MSL
hPa
Rain since
9am
mm
Dir  Spd
km/h
Gust
km/h
Spd
kts
Gust
kts
25/09:30pm 13.6 10.9 3.9 52 4.5 SSE 7 9 4 5 1020.8 1020.4 0.0
25/09:00pm 14.5 11.3 3.3 47 5.1 SSE 9 11 5 6 1020.8 1020.4 0.0
25/08:30pm 15.0 11.8 3.2 45 5.4 S 9 11 5 6 1020.6 1020.2 0.0
25/08:00pm 15.3 11.6 2.5 42 5.8 SSE 11 11 6 6 1020.5 1020.1 0.0
25/07:30pm 15.8 12.1 2.6 41 6.0 S 11 13 6 7 1020.1 1019.8 0.0
25/07:00pm 16.6 13.2 1.9 37 6.6 S 9 15 5 8 1019.9 1019.6 0.0
25/06:30pm 17.7 13.3 0.4 31 7.7 SSE 13 19 7 10 1019.6 1019.3 0.0
25/06:00pm 18.9 13.7 0.0 28 8.4 SSE 17 24 9 13 1019.5 1019.1 0.0
25/05:30pm 19.7 13.9 -0.3 26 8.9 SSE 20 26 11 14 1019.4 1019.0 0.0
25/05:00pm 20.3 14.6 0.7 27 8.9 SSE 20 28 11 15 1019.4 1019.0 0.0
25/04:30pm 20.6 14.8 -0.1 25 9.3 SSE 20 30 11 16 1019.2 1018.8 0.0
25/04:00pm 20.6 14.1 0.4 26 9.2 SSE 24 32 13 17 1019.1 1018.7 0.0
25/03:30pm 20.7 15.3 1.1 27 9.0 SSE 19 30 10 16 1019.3 1018.9 0.0
25/03:00pm 20.4 14.5 1.8 29 8.7 SSE 22 32 12 17 1019.5 1019.1 0.0
25/02:30pm 20.4 15.0 2.3 30 8.5 SSE 20 30 11 16 1019.9 1019.6 0.0
25/02:00pm 20.0 14.7 1.9 30 8.4 SSE 19 30 10 16 1020.2 1019.9 0.0
25/01:30pm 19.8 14.4 2.6 32 8.1 SSE 20 33 11 18 1020.6 1020.2 0.0
25/01:00pm 19.7 14.4 3.0 33 7.9 SE 20 32 11 17 1021.2 1020.8 0.0
25/12:30pm 19.7 14.5 3.8 35 7.7 SE 20 33 11 18 1021.8 1021.4 0.0
25/12:00pm 19.1 13.5 3.3 35 7.5 SSE 22 30 12 16 1022.2 1021.8 0.0
25/11:30am 18.7 12.8 3.7 37 7.2 SE 24 37 13 20 1022.4 1022.0 0.0
25/11:00am 17.9 11.9 3.4 38 6.8 SSE 24 32 13 17 1022.6 1022.3 0.0
25/10:30am 17.3 11.4 3.9 41 6.4 SE 24 33 13 18 1022.7 1022.4 0.0
25/10:00am 16.1 10.5 3.5 43 5.9 SE 22 35 12 19 1022.7 1022.4 0.0
25/09:30am 15.3 9.4 3.8 46 5.4 SE 24 33 13 18 1022.7 1022.4 0.0
25/09:00am 14.5 8.9 3.3 47 5.1 SE 22 32 12 17 1022.4 1022.0 0.0
25/08:30am 13.5 8.9 3.6 51 4.5 SSE 17 22 9 12 1022.0 1021.6 0.0
25/08:00am 12.2 8.1 4.2 58 3.7 SSE 15 20 8 11 1021.9 1021.5 0.0
25/07:30am 11.7 7.2 4.2 60 3.4 SSE 17 22 9 12 1021.6 1021.2 0.0
25/07:00am 11.5 7.4 4.5 62 3.2 SSE 15 19 8 10 1021.1 1020.7 0.0
25/06:30am 10.9 8.0 4.4 64 3.0 SSE 9 11 5 6 1020.8 1020.4 0.0
25/06:00am 12.0 8.3 4.2 59 3.6 SSE 13 17 7 9 1020.4 1020.0 0.0
25/05:30am 12.5 8.0 4.0 56 3.9 SSE 17 22 9 12 1020.1 1019.8 0.0
25/05:00am 12.6 8.1 4.3 57 3.8 S 17 22 9 12 1020.0 1019.7 0.0
25/04:30am 12.2 8.6 5.1 62 3.3 S 13 17 7 9 1020.0 1019.7 0.0
25/04:00am 12.5 8.9 5.0 60 3.5 S 13 15 7 8 1020.1 1019.8 0.0
25/03:30am 13.0 9.8 4.9 58 3.8 SSE 11 15 6 8 1020.4 1020.0 0.0
25/03:00am 13.7 10.1 5.1 56 4.1 SSE 13 19 7 10 1020.4 1020.0 0.0
25/02:30am 13.8 10.2 5.2 56 4.1 S 13 19 7 10 1020.6 1020.2 0.0
25/02:00am 14.0 10.5 5.4 56 4.1 S 13 17 7 9 1020.7 1020.3 0.0
25/01:30am 14.5 10.9 5.0 53 4.5 SSE 13 17 7 9 1020.7 1020.3 0.0
25/01:00am 15.1 11.1 5.0 51 4.8 S 15 19 8 10 1020.6 1020.2 0.0
25/12:30am 15.8 11.5 5.1 49 5.1 SSE 17 22 9 12 1020.7 1020.3 0.0
25/12:00am 15.5 11.8 6.2 54 4.6 S 15 20 8 11 1020.8 1020.4 0.0
 
Date/Time
EST
Temp
°C
App
Temp
°C
Dew
Point
°C
Rel
Hum
%
Delta-T
°C
Wind Press
QNH
hPa
Press
MSL
hPa
Rain since
9am
mm
Dir  Spd
km/h
Gust
km/h
Spd
kts
Gust
kts
24/11:30pm 15.2 12.0 7.0 58 4.1 S 13 15 7 8 1020.9 1020.5 0.0
24/11:00pm 15.0 12.7 7.3 60 3.8 S 9 11 5 6 1020.9 1020.5 0.0
24/10:30pm 15.7 13.2 6.7 55 4.5 S 9 11 5 6 1020.9 1020.5 0.0
24/10:00pm 16.2 13.5 7.2 55 4.5 S 11 13 6 7 1020.7 1020.3 0.0
24/09:30pm 16.0 13.6 7.0 55 4.5 SSE 9 11 5 6 1020.6 1020.2 0.0
24/09:00pm 16.6 14.3 7.5 55 4.6 S 9 11 5 6 1019.9 1019.6 0.0
24/08:30pm 17.1 14.5 6.3 49 5.4 SSE 9 11 5 6 1019.4 1019.0 0.0
24/08:00pm 17.7 15.1 5.9 46 5.8 SSE 9 9 5 5 1019.0 1018.6 0.0
24/07:30pm 18.6 15.6 5.8 43 6.4 S 11 13 6 7 1018.5 1018.1 0.0
24/07:00pm 19.5 15.9 5.2 39 7.1 S 13 17 7 9 1018.1 1017.7 0.0
24/06:30pm 20.7 16.4 5.1 36 7.8 S 17 24 9 13 1017.7 1017.3 0.0
24/06:00pm 22.1 17.4 5.1 33 8.5 S 19 26 10 14 1017.4 1017.0 0.0
24/05:30pm 23.5 19.0 5.9 32 9.1 SSE 19 26 10 14 1017.0 1016.6 0.0
24/05:00pm 24.2 19.6 5.5 30 9.6 SSE 19 26 10 14 1016.6 1016.3 0.0
24/04:30pm 24.6 20.1 5.9 30 9.7 SSE 19 26 10 14 1016.5 1016.1 0.0
24/04:00pm 24.8 20.7 6.1 30 9.7 SSE 17 20 9 11 1016.3 1015.9 0.0
24/03:30pm 24.9 20.8 6.1 30 9.8 SSE 17 24 9 13 1016.4 1016.0 0.0
24/03:00pm 25.0 21.6 5.7 29 10.0 SSE 13 17 7 9 1016.5 1016.1 0.0
24/02:30pm 24.3 21.1 5.1 29 9.8 ESE 11 15 6 8 1016.6 1016.3 0.0
24/02:00pm 23.7 20.1 5.1 30 9.4 SE 13 19 7 10 1017.3 1016.9 0.0
24/01:30pm 22.8 19.5 4.8 31 9.0 SE 11 19 6 10 1017.6 1017.2 0.0
24/01:00pm 22.8 19.6 5.3 32 8.9 ESE 11 17 6 9 1018.3 1017.9 0.0
24/12:30pm 21.8 18.5 4.4 32 8.6 E 11 17 6 9 1019.0 1018.6 0.0
24/12:00pm 21.2 17.9 4.3 33 8.3 E 11 17 6 9 1019.3 1018.9 0.0
24/11:30am 20.1 16.3 3.8 34 7.9 SE 13 22 7 12 1019.8 1019.5 0.0
24/11:00am 19.6 15.7 3.3 34 7.8 E 13 19 7 10 1020.1 1019.8 0.0
24/10:30am 18.3 13.6 3.4 37 7.1 SE 17 20 9 11 1020.6 1020.2 0.0
24/10:00am 17.9 13.4 4.1 40 6.6 SE 17 20 9 11 1020.6 1020.2 0.0
24/09:30am 16.3 12.1 3.7 43 5.9 SE 15 22 8 12 1020.5 1020.1 0.0
24/09:00am 15.3 10.9 5.0 50 4.9 SE 17 22 9 12 1020.0 1019.7 0.0
24/08:30am 13.7 11.8 7.5 66 3.1 SSE 7 11 4 6 1019.6 1019.3 0.0
24/08:00am 11.8 10.9 7.7 76 2.0 S 2 9 1 5 1019.2 1018.8 0.0
24/07:30am 10.3 9.9 8.2 87 1.0 CALM 0 0 0 0 1018.8 1018.4 0.0
24/07:00am 9.8 9.3 7.7 87 1.0 CALM 0 0 0 0 1018.4 1018.0 0.0
24/06:30am 9.7 9.1 7.5 86 1.1 CALM 0 0 0 0 1018.0 1017.6 0.0
24/06:00am 10.1 9.5 7.3 83 1.4 CALM 0 0 0 0 1018.0 1017.6 0.0
24/05:30am 10.8 9.9 7.9 82 1.4 SSW 2 7 1 4 1017.7 1017.3 0.0
24/05:00am 11.2 9.2 6.9 75 2.1 S 7 9 4 5 1017.4 1017.0 0.0
24/04:30am 11.4 8.9 6.7 73 2.3 SSW 9 9 5 5 1017.4 1017.0 0.0
24/04:00am 11.1 9.9 8.0 81 1.5 SSW 4 7 2 4 1017.3 1016.9 0.0
24/03:30am 11.7 9.6 6.6 71 2.5 SSW 7 9 4 5 1017.2 1016.8 0.0
24/03:00am 11.9 10.0 7.4 74 2.2 SSW 7 7 4 4 1017.2 1016.8 0.0
24/02:30am 12.1 10.0 5.7 65 3.0 SSE 6 7 3 4 1017.1 1016.7 0.0
24/02:00am 12.5 10.3 6.1 65 3.1 SSE 7 9 4 5 1017.1 1016.7 0.0
24/01:30am 12.8 10.6 6.4 65 3.1 SSE 7 9 4 5 1017.4 1017.0 0.0
24/01:00am 13.3 10.4 6.4 63 3.3 S 11 13 6 7 1017.3 1016.9 0.0
24/12:30am 13.5 11.1 6.8 64 3.3 S 9 11 5 6 1017.4 1017.0 0.0
24/12:00am 13.8 11.4 7.1 64 3.3 S 9 11 5 6 1017.6 1017.2 0.0
 
Date/Time
EST
Temp
°C
App
Temp
°C
Dew
Point
°C
Rel
Hum
%
Delta-T
°C
Wind Press
QNH
hPa
Press
MSL
hPa
Rain since
9am
mm
Dir  Spd
km/h
Gust
km/h
Spd
kts
Gust
kts
23/11:30pm 13.9 12.0 7.7 66 3.1 S 7 9 4 5 1017.9 1017.5 0.0
23/11:00pm 14.4 12.2 7.7 64 3.4 S 9 11 5 6 1017.8 1017.4 0.0
23/10:30pm 14.8 12.6 7.8 63 3.5 S 9 11 5 6 1017.8 1017.4 0.0
23/10:00pm 14.5 12.9 7.8 64 3.4 S 6 7 3 4 1017.6 1017.2 0.0
23/09:30pm 15.3 13.3 7.3 59 4.0 S 7 7 4 4 1017.7 1017.3 0.0
23/09:00pm 16.3 14.0 7.3 55 4.5 S 9 9 5 5 1017.7 1017.3 0.0
23/08:30pm 16.7 14.3 7.1 53 4.8 S 9 9 5 5 1017.5 1017.1 0.0
23/08:00pm 17.3 14.9 7.1 51 5.2 SSE 9 11 5 6 1017.3 1016.9 0.0
23/07:30pm 18.3 15.3 6.2 45 6.1 SSE 11 15 6 8 1017.2 1016.8 0.0
23/07:00pm 19.2 15.8 6.0 42 6.6 S 13 17 7 9 1017.1 1016.7 0.0
23/06:30pm 20.2 15.9 5.4 38 7.4 S 17 20 9 11 1017.2 1016.8 0.0
23/06:00pm 21.5 16.6 5.0 34 8.2 SSE 20 32 11 17 1016.9 1016.5 0.0
23/05:30pm 22.4 16.7 4.9 32 8.8 S 24 30 13 16 1016.6 1016.3 0.0
23/05:00pm 23.2 17.6 5.6 32 9.0 SSE 24 35 13 19 1016.4 1016.0 0.0
23/04:30pm 23.3 17.8 5.7 32 9.0 S 24 32 13 17 1016.1 1015.7 0.0
23/04:00pm 23.8 18.3 6.1 32 9.2 S 24 37 13 20 1016.0 1015.6 0.0
23/03:30pm 23.9 17.8 6.7 33 9.0 S 28 37 15 20 1016.0 1015.6 0.0
23/03:00pm 24.2 19.2 8.2 36 8.6 S 24 39 13 21 1016.2 1015.8 0.0
23/02:30pm 24.2 19.2 8.2 36 8.6 S 24 35 13 19 1016.3 1015.9 0.0
23/02:00pm 24.5 20.3 9.6 39 8.2 S 22 32 12 17 1016.4 1016.0 0.0
23/01:30pm 23.6 19.7 9.6 41 7.7 SSE 20 28 11 15 1016.5 1016.1 0.0
23/01:00pm 23.7 20.0 10.0 42 7.6 SSE 20 28 11 15 1016.9 1016.5 0.0
23/12:30pm 23.8 20.3 10.8 44 7.3 SSE 20 28 11 15 1017.4 1017.0 0.0
23/12:00pm 23.5 20.1 11.2 46 7.0 SSE 20 28 11 15 1017.7 1017.3 0.0
23/11:30am 22.7 19.1 10.5 46 6.8 SSE 20 30 11 16 1018.0 1017.6 0.0
23/11:00am 21.9 18.6 11.6 52 5.8 S 20 33 11 18 1018.2 1017.8 0.0
23/10:30am 21.0 17.9 12.2 57 5.0 SSE 20 30 11 16 1018.3 1017.9 0.0
23/10:00am 20.0 16.2 12.5 62 4.3 S 24 30 13 16 1018.3 1017.9 0.0
23/09:30am 19.3 16.2 12.3 64 4.0 S 20 28 11 15 1018.0 1017.6 0.0
23/09:00am 19.3 18.1 13.9 71 3.1 SSW 13 20 7 11 1017.6 1017.2 0.0
23/08:30am 17.4 16.5 13.7 79 2.1 SW 11 13 6 7 1017.3 1016.9 0.0
23/08:00am 15.8 15.4 12.5 81 1.8 NNE 6 7 3 4 1016.5 1016.1 0.0
23/07:30am 13.9 14.6 12.1 89 1.0 CALM 0 6 0 3 1016.2 1015.8 0.0
23/07:00am 13.5 12.7 11.7 89 1.0 N 7 7 4 4 1015.7 1015.3 0.0
23/06:30am 14.3 13.6 12.0 86 1.3 NNW 7 9 4 5 1015.4 1015.0 0.0
23/06:00am 14.2 13.5 12.1 87 1.2 NNW 7 7 4 4 1014.9 1014.5 0.0
23/05:30am 14.7 14.1 12.2 85 1.4 NNW 7 7 4 4 1014.7 1014.3 0.0
23/05:00am 15.1 14.5 12.2 83 1.6 NNW 7 7 4 4 1014.5 1014.1 0.0
23/04:30am 15.7 15.2 12.6 82 1.7 NNW 7 9 4 5 1014.6 1014.2 0.0
23/04:00am 15.7 15.4 12.6 82 1.7 N 6 7 3 4 1014.8 1014.4 0.0
23/03:30am 16.0 15.6 12.9 82 1.7 NNW 7 9 4 5 1014.9 1014.5 0.0
23/03:00am 16.4 16.0 12.9 80 2.0 NNW 7 7 4 4 1015.1 1014.7 0.0
23/02:30am 16.6 16.4 13.5 82 1.8 NNW 7 7 4 4 1015.1 1014.7 0.0
23/02:00am 16.5 16.3 13.6 83 1.7 NW 7 9 4 5 1015.2 1014.8 0.0
23/01:30am 17.3 16.9 14.2 82 1.8 WNW 9 9 5 5 1015.3 1014.9 0.0
23/01:00am 17.8 17.9 15.6 87 1.3 WNW 9 13 5 7 1015.3 1014.9 0.0
23/12:30am 17.3 19.0 15.3 88 1.2 CALM 0 0 0 0 1015.3 1014.9 0.0
23/12:00am 17.1 18.7 14.9 87 1.3 CALM 0 0 0 0 1015.3 1014.9 0.0
 
Date/Time
EST
Temp
°C
App
Temp
°C
Dew
Point
°C
Rel
Hum
%
Delta-T
°C
Wind Press
QNH
hPa
Press
MSL
hPa
Rain since
9am
mm
Dir  Spd
km/h
Gust
km/h
Spd
kts
Gust
kts
22/11:30pm 17.4 19.0 14.9 85 1.5 CALM 0 6 0 3 1015.5 1015.1 0.0
22/11:00pm 17.9 18.5 15.2 84 1.6 NNW 6 7 3 4 1015.6 1015.2 0.0
22/10:30pm 18.2 18.7 15.5 84 1.6 NNW 7 9 4 5 1015.5 1015.1 0.0
22/10:00pm 19.0 19.9 16.0 83 1.8 NW 6 9 3 5 1015.5 1015.1 0.0

Other Formats:

Comma delimited format used in spreadsheet applications
http://www.bom.gov.au/fwo/IDQ60801/IDQ60801.94336.axf

JavaScript Object Notation format (JSON) in row-major order
http://www.bom.gov.au/fwo/IDQ60801/IDQ60801.94336.json